Time;durP1;ratioP1;P1;durP2;ratioP2;P2;SDS_P1;SDS_P2;PMS_P1;PMS_P2;Temp;Humidity;BMP_temperature;BMP_pressure;BME280_temperature;BME280_humidity;BME280_pressure;Samples;Min_cycle;Max_cycle;Signal;HPM_P1;HPM_P2
2023/01/10 00:00:06;;;;;;;42.00;24.20;;;;;;;5.39;88.03;97811.52;89306;1267;22738;-77
2023/01/10 00:02:28;;;;;;;42.20;25.40;;;;;;;5.38;87.92;97807.76;89538;1270;98275;-78
2023/01/10 00:04:30;;;;;;;42.80;27.20;;;;;;;5.38;88.02;97811.77;89715;1265;26984;-77
2023/01/10 00:06:32;;;;;;;44.60;26.80;;;;;;;5.37;88.07;97813.86;89617;1269;22472;-76
2023/01/10 00:08:33;;;;;;;41.70;25.60;;;;;;;5.37;87.88;97816.84;89568;1270;98688;-78
2023/01/10 00:10:35;;;;;;;44.50;26.70;;;;;;;5.37;88.09;97815.62;89680;1269;25530;-76
2023/01/10 00:14:57;;;;;;;40.50;26.50;;;;;;;5.34;88.03;97822.71;89553;1262;98042;-77
2023/01/10 00:17:03;;;;;;;47.00;26.00;;;;;;;5.32;88.01;97827.36;89861;1268;22552;-77
2023/01/10 00:19:07;;;;;;;48.90;26.60;;;;;;;5.30;87.82;97830.06;89796;1262;22535;-78
2023/01/10 00:21:09;;;;;;;39.00;24.70;;;;;;;5.24;87.89;97834.48;89721;1271;99437;-77
2023/01/10 00:23:12;;;;;;;41.60;27.20;;;;;;;5.20;87.79;97831.88;89664;1265;24155;-78
2023/01/10 00:25:14;;;;;;;39.70;25.80;;;;;;;5.19;87.70;97835.77;89506;1270;22620;-78
2023/01/10 00:27:21;;;;;;;52.40;27.30;;;;;;;5.16;87.87;97835.37;89539;1269;98187;-78
2023/01/10 00:29:27;;;;;;;48.50;25.80;;;;;;;5.14;87.72;97838.44;89669;1269;23072;-78
2023/01/10 00:31:29;;;;;;;38.20;25.10;;;;;;;5.12;87.92;97839.73;89794;1269;100492;-78
2023/01/10 00:33:40;;;;;;;40.70;26.10;;;;;;;5.10;87.85;97838.08;89843;1253;23125;-79
2023/01/10 00:35:41;;;;;;;37.80;26.40;;;;;;;5.09;87.87;97839.88;89823;1268;26533;-78
2023/01/10 00:37:43;;;;;;;42.90;25.90;;;;;;;5.08;88.03;97844.08;89638;1270;99157;-77
2023/01/10 00:39:45;;;;;;;50.60;25.30;;;;;;;5.06;87.91;97850.43;89778;1269;22591;-77
2023/01/10 00:44:07;;;;;;;40.90;25.40;;;;;;;5.04;87.99;97848.98;89677;1262;99383;-77
2023/01/10 00:46:10;;;;;;;43.10;25.30;;;;;;;5.03;88.01;97847.45;89884;1262;22682;-76
2023/01/10 00:48:13;;;;;;;41.80;25.00;;;;;;;5.02;87.95;97850.98;89621;1269;22631;-76
2023/01/10 00:50:16;;;;;;;43.50;25.60;;;;;;;5.02;88.02;97856.19;89543;1269;98306;-76
2023/01/10 00:52:18;;;;;;;43.80;26.20;;;;;;;5.01;88.19;97863.91;89536;1270;22965;-75
2023/01/10 00:54:19;;;;;;;44.20;26.40;;;;;;;5.00;88.06;97864.97;89711;1268;22585;-75
2023/01/10 00:56:21;;;;;;;41.90;24.50;;;;;;;5.00;88.16;97863.77;89360;1270;98300;-74
2023/01/10 00:58:23;;;;;;;40.70;25.50;;;;;;;4.99;88.17;97869.03;89590;1268;25314;-74
2023/01/10 01:00:25;;;;;;;41.00;26.60;;;;;;;4.98;88.24;97866.26;89404;1266;22750;-74
2023/01/10 01:02:26;;;;;;;41.90;27.50;;;;;;;4.98;88.18;97868.70;89311;1269;100345;-74
2023/01/10 01:04:32;;;;;;;41.70;25.60;;;;;;;4.98;88.21;97873.77;89245;1265;22544;-74
2023/01/10 01:06:34;;;;;;;38.30;26.10;;;;;;;4.97;88.19;97874.85;89298;1264;25421;-74
2023/01/10 01:08:36;;;;;;;43.20;25.70;;;;;;;4.93;88.29;97866.86;89079;1258;213989;-74
2023/01/10 01:10:38;;;;;;;41.20;26.80;;;;;;;4.98;88.26;97877.45;89119;1270;25334;-73
2023/01/10 01:12:40;;;;;;;38.20;25.70;;;;;;;4.97;88.29;97873.66;89285;1264;25301;-74
2023/01/10 01:14:41;;;;;;;39.40;24.10;;;;;;;4.97;88.21;97886.70;88898;1270;99831;-75
2023/01/10 01:16:43;;;;;;;39.50;24.90;;;;;;;4.96;88.25;97883.24;89015;1267;22541;-73
2023/01/10 01:18:45;;;;;;;41.10;25.60;;;;;;;4.94;88.16;97881.94;89193;1268;22563;-74
2023/01/10 01:20:51;;;;;;;53.40;26.00;;;;;;;4.93;88.31;97881.64;88976;1271;99335;-75
2023/01/10 01:22:53;;;;;;;39.10;25.30;;;;;;;4.92;88.30;97882.17;88974;1264;22578;-74
2023/01/10 01:24:55;;;;;;;41.60;25.60;;;;;;;4.91;88.36;97886.92;89083;1265;23453;-74
2023/01/10 01:26:56;;;;;;;41.80;24.60;;;;;;;4.91;88.26;97886.41;88867;1271;98089;-74
2023/01/10 01:28:58;;;;;;;38.40;24.50;;;;;;;4.91;88.54;97888.84;89061;1268;27092;-73
2023/01/10 01:31:06;;;;;;;41.20;25.00;;;;;;;4.90;88.48;97891.33;89058;1270;25634;-73
2023/01/10 01:33:07;;;;;;;35.90;23.80;;;;;;;4.90;88.34;97893.79;89036;1269;99433;-73
2023/01/10 01:35:13;;;;;;;36.90;23.40;;;;;;;4.89;88.40;97892.61;89166;1268;23941;-74
2023/01/10 01:37:15;;;;;;;39.00;22.60;;;;;;;4.88;88.37;97892.30;88962;1271;22529;-74
2023/01/10 01:39:16;;;;;;;45.20;22.70;;;;;;;4.89;88.37;97894.19;89100;1263;99403;-73
2023/01/10 01:44:02;;;;;;;38.70;24.20;;;;;;;4.87;88.48;97894.58;89143;1268;99745;-73
2023/01/10 01:46:04;;;;;;;33.50;23.00;;;;;;;4.86;88.61;97896.05;89235;1264;22527;-73
2023/01/10 01:48:17;;;;;;;42.10;23.00;;;;;;;4.83;88.62;97893.04;89227;1269;23664;-73
2023/01/10 01:50:27;;;;;;;32.60;21.40;;;;;;;4.84;88.49;97898.89;89066;1264;99426;-74
2023/01/10 01:52:36;;;;;;;35.90;22.60;;;;;;;4.82;88.49;97901.77;89260;1268;22725;-73
2023/01/10 01:54:37;;;;;;;35.00;22.00;;;;;;;4.81;88.59;97900.27;89046;1264;24195;-73
2023/01/10 01:56:54;;;;;;;36.10;21.50;;;;;;;4.80;88.46;97901.32;89270;1270;99235;-73
2023/01/10 01:59:05;;;;;;;34.00;21.30;;;;;;;4.78;88.50;97903.31;89093;1269;22538;-75
2023/01/10 02:01:07;;;;;;;36.70;23.90;;;;;;;4.77;88.47;97905.09;89182;1268;22646;-74
2023/01/10 02:03:12;;;;;;;36.00;21.70;;;;;;;4.77;88.47;97903.90;89068;1270;99306;-75
2023/01/10 02:05:16;;;;;;;35.00;22.30;;;;;;;4.76;88.58;97903.76;89284;1269;22833;-74
2023/01/10 02:07:19;;;;;;;37.00;21.70;;;;;;;4.74;88.53;97902.28;89250;1262;22599;-74
2023/01/10 02:09:43;;;;;;;36.60;22.60;;;;;;;4.73;88.56;97904.77;89090;1268;98980;-74
2023/01/10 02:11:45;;;;;;;33.50;21.80;;;;;;;4.72;88.45;97910.20;89135;1270;22583;-74
2023/01/10 02:13:49;;;;;;;34.60;22.00;;;;;;;4.70;88.51;97909.92;88960;1268;98847;-75
2023/01/10 02:15:51;;;;;;;30.50;21.70;;;;;;;4.69;88.40;97909.63;89028;1271;22526;-75
2023/01/10 02:17:52;;;;;;;34.10;22.70;;;;;;;4.69;88.64;97906.83;89081;1270;22577;-74
2023/01/10 02:20:00;;;;;;;39.20;22.60;;;;;;;4.69;88.56;97912.04;89057;1265;99349;-75
2023/01/10 02:22:16;;;;;;;34.20;21.80;;;;;;;4.69;88.61;97912.92;89133;1271;22609;-75
2023/01/10 02:24:24;;;;;;;34.10;22.40;;;;;;;4.69;88.72;97911.02;89152;1261;22572;-75
2023/01/10 02:26:50;;;;;;;35.30;21.40;;;;;;;4.68;88.78;97911.08;88909;1271;99621;-75
2023/01/10 02:29:11;;;;;;;30.80;21.70;;;;;;;4.69;88.67;97912.77;89238;1258;25364;-75
2023/01/10 02:31:16;;;;;;;32.50;20.60;;;;;;;4.69;88.71;97915.04;89214;1267;26592;-75
2023/01/10 02:33:19;;;;;;;39.10;22.20;;;;;;;4.68;88.65;97914.73;89107;1269;99290;-75
2023/01/10 02:35:26;;;;;;;39.00;22.00;;;;;;;4.67;88.69;97918.41;89195;1269;22564;-75
2023/01/10 02:37:49;;;;;;;32.10;21.20;;;;;;;4.68;88.65;97921.66;89181;1265;22484;-75
2023/01/10 02:40:07;;;;;;;34.80;21.50;;;;;;;4.67;88.73;97926.77;89243;1267;22685;-75
2023/01/10 02:42:15;;;;;;;38.00;22.30;;;;;;;4.66;88.71;97930.10;89192;1269;24236;-76
2023/01/10 02:44:23;;;;;;;37.70;22.00;;;;;;;4.66;88.82;97924.71;88857;1271;99828;-75
2023/01/10 02:46:30;;;;;;;40.50;22.10;;;;;;;4.66;88.78;97929.93;89279;1266;24299;-76
2023/01/10 02:48:31;;;;;;;33.40;20.60;;;;;;;4.66;88.68;97930.30;89139;1261;22536;-76
2023/01/10 02:50:42;;;;;;;39.00;21.80;;;;;;;4.65;88.71;97929.96;89049;1269;98592;-76
2023/01/10 02:52:44;;;;;;;35.10;22.90;;;;;;;4.65;88.87;97929.95;89251;1267;22712;-75
2023/01/10 02:54:47;;;;;;;36.70;22.90;;;;;;;4.65;88.73;97931.73;89003;1262;22538;-75
2023/01/10 02:57:24;;;;;;;39.30;24.10;;;;;;;4.65;88.74;97939.37;89241;1270;99468;-75
2023/01/10 02:59:47;;;;;;;34.70;22.80;;;;;;;4.65;88.85;97945.80;89188;1268;24600;-76
2023/01/10 03:02:31;;;;;;;42.90;23.90;;;;;;;4.64;88.81;97945.15;89134;1268;99692;-78
2023/01/10 03:04:45;;;;;;;35.70;23.70;;;;;;;4.64;88.86;97947.94;89167;1268;24258;-76
2023/01/10 03:07:27;;;;;;;37.40;23.30;;;;;;;4.65;88.81;97952.08;89212;1268;22652;-75
2023/01/10 03:09:35;;;;;;;39.70;23.10;;;;;;;4.64;88.79;97956.64;88873;1272;99089;-76
2023/01/10 03:11:42;;;;;;;40.90;23.20;;;;;;;4.63;88.86;97956.67;88716;1274;22561;-76
2023/01/10 03:14:00;;;;;;;40.50;24.40;;;;;;;4.64;88.82;97961.00;88914;1268;98558;-76
2023/01/10 03:16:06;;;;;;;39.60;24.90;;;;;;;4.63;88.72;97960.01;89126;1272;23244;-76
2023/01/10 03:18:23;;;;;;;35.40;22.80;;;;;;;4.62;88.85;97960.73;88709;1277;23500;-77
2023/01/10 03:20:28;;;;;;;37.30;23.00;;;;;;;4.60;88.78;97963.73;88718;1276;99216;-77
2023/01/10 03:22:32;;;;;;;35.40;21.60;;;;;;;4.59;88.86;97967.93;88931;1268;22524;-77
2023/01/10 03:24:40;;;;;;;33.70;21.70;;;;;;;4.59;88.78;97972.49;88946;1275;22604;-78
2023/01/10 03:26:57;;;;;;;33.10;20.80;;;;;;;4.58;88.79;97972.17;88812;1275;98254;-77
2023/01/10 03:29:05;;;;;;;28.00;20.60;;;;;;;4.58;88.80;97974.80;88972;1268;22533;-77
2023/01/10 03:31:16;;;;;;;36.70;20.90;;;;;;;4.57;88.72;97977.77;88848;1275;24433;-76
2023/01/10 03:33:23;;;;;;;36.50;20.90;;;;;;;4.57;88.74;97980.06;88698;1275;98468;-77
2023/01/10 03:35:42;;;;;;;38.70;20.50;;;;;;;4.56;88.86;97983.04;88760;1280;25977;-75
2023/01/10 03:37:54;;;;;;;34.60;20.80;;;;;;;4.55;88.81;97985.16;88795;1259;100292;-77
2023/01/10 03:40:17;;;;;;;33.80;18.60;;;;;;;4.54;88.81;97987.98;89392;1267;22706;-76
2023/01/10 03:42:24;;;;;;;34.80;18.00;;;;;;;4.53;88.74;97990.63;88977;1269;24258;-75
2023/01/10 03:44:44;;;;;;;29.60;16.80;;;;;;;4.52;88.75;97995.55;88749;1276;99161;-76
2023/01/10 03:46:57;;;;;;;25.90;18.00;;;;;;;4.52;88.90;97999.57;89110;1269;23137;-77
2023/01/10 03:49:01;;;;;;;28.50;18.20;;;;;;;4.50;88.76;98003.46;89352;1267;22605;-77
2023/01/10 03:51:06;;;;;;;28.20;17.00;;;;;;;4.49;88.82;98008.71;89135;1270;98250;-76
2023/01/10 03:53:08;;;;;;;28.50;16.70;;;;;;;4.49;88.76;98014.29;89181;1255;25465;-77
2023/01/10 03:55:12;;;;;;;24.50;17.10;;;;;;;4.48;88.87;98015.55;89263;1270;22595;-77
2023/01/10 03:57:19;;;;;;;26.80;15.70;;;;;;;4.47;88.86;98018.52;89324;1268;98752;-77
2023/01/10 03:59:24;;;;;;;19.10;14.50;;;;;;;4.46;88.85;98022.23;89273;1263;23294;-77
2023/01/10 04:01:26;;;;;;;23.70;15.60;;;;;;;4.45;88.84;98026.63;89300;1270;25164;-77
2023/01/10 04:03:28;;;;;;;20.70;14.50;;;;;;;4.43;88.76;98031.02;89272;1262;98474;-76
2023/01/10 04:05:30;;;;;;;23.70;14.20;;;;;;;4.42;88.74;98032.97;89437;1265;22545;-78
2023/01/10 04:07:32;;;;;;;22.20;13.20;;;;;;;4.41;88.76;98037.05;89338;1270;101589;-75
2023/01/10 04:09:33;;;;;;;16.30;13.20;;;;;;;4.40;88.80;98038.65;89308;1270;25133;-76
2023/01/10 04:11:35;;;;;;;19.60;13.20;;;;;;;4.39;88.71;98044.60;89306;1272;22599;-75
2023/01/10 04:13:37;;;;;;;15.90;11.40;;;;;;;4.37;88.60;98041.01;89366;1267;98415;-77
2023/01/10 04:15:38;;;;;;;16.40;11.50;;;;;;;4.36;88.62;98046.44;89387;1268;22517;-76
2023/01/10 04:17:40;;;;;;;16.00;10.20;;;;;;;4.34;88.59;98048.80;89379;1268;22632;-76
2023/01/10 04:19:42;;;;;;;16.20;10.20;;;;;;;4.32;88.79;98053.38;89292;1268;99383;-76
2023/01/10 04:21:44;;;;;;;17.70;10.60;;;;;;;4.30;88.70;98055.01;89194;1269;25300;-77
2023/01/10 04:23:46;;;;;;;15.60;9.40;;;;;;;4.29;88.62;98052.11;88985;1273;25273;-76
2023/01/10 04:25:48;;;;;;;13.00;10.20;;;;;;;4.26;88.44;98051.00;89112;1270;99352;-77
2023/01/10 04:27:50;;;;;;;16.70;10.60;;;;;;;4.24;88.63;98054.52;89195;1271;24232;-76
2023/01/10 04:29:52;;;;;;;14.80;10.70;;;;;;;4.23;88.65;98054.05;89109;1265;25418;-76
2023/01/10 04:31:54;;;;;;;18.00;11.40;;;;;;;4.22;88.59;98056.02;89149;1270;99143;-75
2023/01/10 04:33:56;;;;;;;20.00;10.30;;;;;;;4.21;88.64;98059.53;89196;1270;22541;-75
2023/01/10 04:35:57;;;;;;;12.70;8.90;;;;;;;4.19;88.63;98059.77;89351;1264;24476;-77
2023/01/10 04:37:59;;;;;;;12.50;9.30;;;;;;;4.18;88.66;98061.89;89117;1264;98150;-77
2023/01/10 04:40:01;;;;;;;16.70;10.30;;;;;;;4.16;88.62;98067.17;89322;1262;22637;-78
2023/01/10 04:42:03;;;;;;;19.00;10.00;;;;;;;4.15;88.67;98068.77;89071;1271;22556;-75
2023/01/10 04:44:05;;;;;;;14.10;9.20;;;;;;;4.15;88.63;98072.27;89287;1269;99844;-78
2023/01/10 04:46:06;;;;;;;21.80;10.40;;;;;;;4.13;88.63;98078.06;89354;1269;22990;-76
2023/01/10 04:48:08;;;;;;;12.10;9.50;;;;;;;4.12;88.64;98085.75;89327;1253;22586;-77
2023/01/10 04:50:10;;;;;;;10.90;9.00;;;;;;;4.11;88.64;98091.86;89299;1269;99118;-77
2023/01/10 04:52:12;;;;;;;11.90;9.70;;;;;;;4.10;88.57;98095.39;89199;1271;24248;-77
2023/01/10 04:54:13;;;;;;;11.80;9.40;;;;;;;4.09;88.70;98097.16;89348;1271;22640;-76
2023/01/10 04:56:17;;;;;;;13.40;10.20;;;;;;;4.09;88.59;98098.58;89387;1265;99140;-75
2023/01/10 04:58:19;;;;;;;12.10;9.20;;;;;;;4.07;88.62;98097.75;89485;1266;26585;-78
2023/01/10 05:00:21;;;;;;;11.10;8.40;;;;;;;4.08;88.60;98103.81;89436;1269;25282;-77
2023/01/10 05:02:22;;;;;;;19.40;9.60;;;;;;;4.06;88.55;98104.04;89290;1269;99456;-78
2023/01/10 05:04:24;;;;;;;12.20;8.40;;;;;;;4.06;88.68;98107.88;89293;1263;22518;-76
2023/01/10 05:06:26;;;;;;;13.10;8.40;;;;;;;4.05;88.64;98111.89;89242;1274;25431;-78
2023/01/10 05:08:28;;;;;;;11.20;8.20;;;;;;;4.04;88.65;98117.15;89418;1268;98955;-77
2023/01/10 05:10:30;;;;;;;12.80;8.60;;;;;;;4.03;88.72;98116.34;89458;1267;22543;-74
2023/01/10 05:12:32;;;;;;;9.00;7.80;;;;;;;4.02;88.60;98116.70;89187;1272;22641;-76
2023/01/10 05:14:33;;;;;;;8.60;7.70;;;;;;;4.01;88.54;98126.30;89539;1272;99495;-77
2023/01/10 05:16:36;;;;;;;10.10;7.50;;;;;;;3.99;88.64;98130.18;89570;1270;24226;-77
2023/01/10 05:18:38;;;;;;;9.60;6.80;;;;;;;3.98;88.58;98138.94;89481;1270;22809;-77
2023/01/10 05:20:40;;;;;;;8.60;7.30;;;;;;;3.97;88.61;98141.58;89297;1268;98784;-77
2023/01/10 05:22:42;;;;;;;12.40;8.40;;;;;;;3.97;88.66;98139.50;89229;1270;23520;-80
2023/01/10 05:24:44;;;;;;;9.30;6.60;;;;;;;3.96;88.49;98144.57;89152;1271;25298;-78
2023/01/10 05:26:46;;;;;;;11.60;8.00;;;;;;;3.96;88.50;98149.27;89199;1264;97750;-76
2023/01/10 05:28:48;;;;;;;10.50;7.70;;;;;;;3.96;88.70;98155.52;89178;1271;22599;-76
2023/01/10 05:30:50;;;;;;;8.90;7.30;;;;;;;3.95;88.57;98158.50;89182;1262;25311;-76
2023/01/10 05:32:51;;;;;;;9.20;6.60;;;;;;;3.94;88.59;98157.67;89260;1265;98742;-75
2023/01/10 05:34:53;;;;;;;12.30;8.00;;;;;;;3.93;88.77;98158.56;89067;1271;22582;-77
2023/01/10 05:36:55;;;;;;;9.00;7.00;;;;;;;3.92;88.69;98163.61;89332;1269;22706;-76
2023/01/10 05:38:57;;;;;;;12.60;7.50;;;;;;;3.91;88.72;98168.17;89364;1270;98821;-76
2023/01/10 05:40:59;;;;;;;15.90;8.60;;;;;;;3.91;88.67;98168.19;89230;1271;22598;-76
2023/01/10 05:43:01;;;;;;;12.80;8.90;;;;;;;3.89;88.78;98173.28;89438;1262;22584;-77
2023/01/10 05:45:04;;;;;;;15.50;8.30;;;;;;;3.88;88.65;98179.05;89425;1268;99176;-76
2023/01/10 05:47:05;;;;;;;14.00;9.20;;;;;;;3.87;88.61;98186.74;89297;1271;22586;-77
2023/01/10 05:49:07;;;;;;;12.50;7.80;;;;;;;3.85;88.70;98186.80;89289;1264;22600;-78
2023/01/10 05:51:09;;;;;;;15.60;7.90;;;;;;;3.83;88.71;98191.90;89055;1271;98884;-76
2023/01/10 05:53:11;;;;;;;13.60;8.70;;;;;;;3.81;88.51;98195.80;89262;1267;22529;-77
2023/01/10 05:55:12;;;;;;;13.00;8.40;;;;;;;3.79;88.73;98202.64;89246;1274;22530;-76
2023/01/10 05:57:14;;;;;;;10.50;8.30;;;;;;;3.75;88.50;98196.70;89449;1267;99961;-77
2023/01/10 05:59:16;;;;;;;9.80;7.50;;;;;;;3.75;88.53;98200.88;89638;1267;22555;-76
2023/01/10 06:01:18;;;;;;;11.50;6.50;;;;;;;3.73;88.52;98208.26;89668;1269;22643;-76
2023/01/10 06:03:19;;;;;;;9.00;7.00;;;;;;;3.71;88.58;98208.32;89474;1269;99854;-77
2023/01/10 06:05:22;;;;;;;13.90;7.50;;;;;;;3.70;88.71;98212.88;89505;1269;23263;-77
2023/01/10 06:07:24;;;;;;;11.30;7.50;;;;;;;3.69;88.59;98218.11;89362;1265;22790;-76
2023/01/10 06:09:26;;;;;;;11.80;8.30;;;;;;;3.67;88.56;98216.77;89560;1269;98317;-77
2023/01/10 06:11:28;;;;;;;14.80;9.10;;;;;;;3.65;88.49;98224.82;89462;1264;24151;-78
2023/01/10 06:13:31;;;;;;;10.20;7.40;;;;;;;3.64;88.72;98227.13;89485;1269;22529;-78
2023/01/10 06:15:32;;;;;;;15.40;6.80;;;;;;;3.63;88.57;98228.20;89377;1272;22726;-78
2023/01/10 06:17:35;;;;;;;9.30;7.30;;;;;;;3.61;88.61;98229.66;89687;1269;22551;-78
2023/01/10 06:19:37;;;;;;;15.70;7.10;;;;;;;3.59;88.52;98232.66;89335;1269;98900;-77
2023/01/10 06:21:39;;;;;;;15.00;8.30;;;;;;;3.58;88.65;98234.78;89454;1268;22760;-77
2023/01/10 06:23:41;;;;;;;15.20;7.60;;;;;;;3.56;88.79;98234.30;89453;1259;23401;-76
2023/01/10 06:25:43;;;;;;;8.60;6.80;;;;;;;3.57;88.47;98244.02;89297;1259;98266;-76
2023/01/10 06:27:45;;;;;;;8.20;7.00;;;;;;;3.55;88.75;98244.77;89043;1262;24235;-77
2023/01/10 06:29:47;;;;;;;8.70;6.60;;;;;;;3.54;88.60;98247.74;89370;1269;22556;-78
2023/01/10 06:31:48;;;;;;;7.60;5.80;;;;;;;3.53;88.68;98253.35;89334;1263;99264;-77
2023/01/10 06:33:51;;;;;;;9.50;6.20;;;;;;;3.52;88.56;98258.23;89310;1271;22560;-78
2023/01/10 06:35:52;;;;;;;11.20;6.40;;;;;;;3.50;88.73;98259.87;89281;1271;23015;-79
2023/01/10 06:37:54;;;;;;;8.30;5.90;;;;;;;3.48;88.87;98262.02;89540;1271;99842;-77
2023/01/10 06:39:56;;;;;;;8.60;5.70;;;;;;;3.46;88.72;98268.34;89407;1265;22672;-76
2023/01/10 06:41:57;;;;;;;12.90;6.00;;;;;;;3.43;88.60;98276.08;89318;1270;22690;-76
2023/01/10 06:43:59;;;;;;;9.70;6.20;;;;;;;3.41;88.61;98280.11;89775;1263;99133;-78
2023/01/10 06:46:01;;;;;;;6.60;5.90;;;;;;;3.39;88.60;98282.77;89449;1262;23061;-78
2023/01/10 06:48:03;;;;;;;8.70;5.50;;;;;;;3.36;88.63;98287.91;89712;1269;22580;-79
2023/01/10 06:50:06;;;;;;;5.60;4.80;;;;;;;3.33;88.67;98291.13;89469;1268;98811;-78
2023/01/10 06:52:08;;;;;;;6.00;4.80;;;;;;;3.32;88.69;98294.13;89687;1269;24027;-79
2023/01/10 06:54:09;;;;;;;6.30;5.70;;;;;;;3.29;88.54;98298.35;89620;1262;22542;-78
2023/01/10 06:56:11;;;;;;;8.00;5.00;;;;;;;3.29;88.64;98303.23;89398;1270;97968;-77
2023/01/10 06:58:17;;;;;;;16.40;7.10;;;;;;;3.26;88.61;98302.26;89338;1265;22553;-77
2023/01/10 07:00:19;;;;;;;16.20;6.70;;;;;;;3.25;88.84;98302.48;89477;1269;22877;-78
2023/01/10 07:02:21;;;;;;;7.30;5.70;;;;;;;3.22;88.84;98299.05;89325;1254;99219;-77
2023/01/10 07:04:23;;;;;;;8.00;6.00;;;;;;;3.22;88.59;98304.99;89441;1269;22756;-77
2023/01/10 07:06:25;;;;;;;8.30;4.70;;;;;;;3.20;88.70;98305.02;89356;1269;22524;-77
2023/01/10 07:08:27;;;;;;;7.80;5.00;;;;;;;3.19;88.69;98303.16;89429;1271;98785;-77
2023/01/10 07:10:30;;;;;;;12.00;4.80;;;;;;;3.18;88.70;98302.14;89633;1268;22613;-77
2023/01/10 07:12:31;;;;;;;6.10;4.70;;;;;;;3.17;88.63;98299.91;89488;1272;22584;-76
2023/01/10 07:14:33;;;;;;;9.20;5.60;;;;;;;3.17;89.05;98301.98;89450;1270;98148;-76
2023/01/10 07:16:35;;;;;;;11.10;5.30;;;;;;;3.17;88.77;98300.44;89226;1274;25489;-76
2023/01/10 07:18:39;;;;;;;7.00;5.20;;;;;;;3.17;88.74;98304.60;89224;1269;22530;-75
2023/01/10 07:20:40;;;;;;;13.40;5.60;;;;;;;3.16;88.65;98304.11;89040;1266;98291;-76
2023/01/10 07:22:42;;;;;;;10.00;6.00;;;;;;;3.16;88.85;98309.34;89438;1266;22641;-76
2023/01/10 07:24:44;;;;;;;10.40;6.90;;;;;;;3.16;88.71;98310.02;89538;1269;22638;-75
2023/01/10 07:26:46;;;;;;;12.00;6.60;;;;;;;3.16;88.66;98314.02;89139;1271;98058;-75
2023/01/10 07:28:49;;;;;;;7.70;5.80;;;;;;;3.07;88.86;98301.26;89115;1268;25510;-75
2023/01/10 07:30:51;;;;;;;11.50;6.40;;;;;;;3.16;88.94;98320.42;89465;1263;25458;-74
2023/01/10 07:32:56;;;;;;;14.80;6.90;;;;;;;3.17;88.57;98321.27;89255;1270;98952;-75
2023/01/10 07:34:58;;;;;;;10.10;6.40;;;;;;;3.18;88.80;98327.51;89377;1269;24227;-75
2023/01/10 07:37:00;;;;;;;12.60;6.00;;;;;;;3.20;88.68;98331.60;89188;1265;22572;-75
2023/01/10 07:39:02;;;;;;;9.90;6.10;;;;;;;3.21;88.98;98337.48;89259;1272;98928;-75
2023/01/10 07:41:05;;;;;;;6.40;5.80;;;;;;;3.22;89.07;98336.23;89256;1272;24259;-75
2023/01/10 07:43:07;;;;;;;14.30;6.60;;;;;;;3.23;88.81;98335.33;89605;1270;22543;-76
2023/01/10 07:45:09;;;;;;;7.00;5.70;;;;;;;3.26;88.92;98331.98;89351;1269;99804;-74
2023/01/10 07:47:11;;;;;;;18.10;7.50;;;;;;;3.26;88.93;98329.52;89382;1270;22568;-76
2023/01/10 07:49:13;;;;;;;17.10;6.50;;;;;;;3.29;88.92;98332.23;89184;1265;22936;-76
2023/01/10 07:51:15;;;;;;;10.80;6.00;;;;;;;3.29;88.79;98337.45;89199;1269;99141;-75
2023/01/10 07:53:17;;;;;;;7.30;5.70;;;;;;;3.29;89.04;98336.38;89320;1269;24223;-75
2023/01/10 07:55:20;;;;;;;17.40;6.60;;;;;;;3.30;88.88;98337.23;89248;1268;24311;-76
2023/01/10 07:57:22;;;;;;;8.90;5.80;;;;;;;3.30;89.03;98333.58;89187;1265;98881;-76
2023/01/10 07:59:24;;;;;;;10.50;7.00;;;;;;;3.31;89.09;98334.09;89092;1270;23607;-75
2023/01/10 08:01:26;;;;;;;11.90;7.40;;;;;;;3.31;88.89;98339.80;89025;1272;24230;-75
2023/01/10 08:03:32;;;;;;;23.20;8.00;;;;;;;3.31;89.03;98342.05;89191;1270;98790;-75
2023/01/10 08:05:33;;;;;;;15.00;9.10;;;;;;;3.33;89.05;98344.61;89263;1268;22539;-77
2023/01/10 08:07:36;;;;;;;13.70;8.10;;;;;;;3.33;88.99;98341.98;89305;1269;99684;-77
2023/01/10 08:09:38;;;;;;;11.70;7.80;;;;;;;3.34;89.04;98346.15;89369;1269;24198;-77
2023/01/10 08:11:41;;;;;;;12.40;8.70;;;;;;;3.35;89.01;98350.11;89188;1270;22656;-75
2023/01/10 08:13:43;;;;;;;16.60;8.00;;;;;;;3.37;89.16;98356.83;89296;1270;99983;-75
2023/01/10 08:15:48;;;;;;;13.80;7.70;;;;;;;3.37;89.11;98360.64;89328;1271;24185;-74
2023/01/10 08:17:50;;;;;;;9.10;7.60;;;;;;;3.39;89.19;98362.66;89311;1261;24340;-75
2023/01/10 08:19:52;;;;;;;9.80;7.90;;;;;;;3.39;89.05;98365.77;89079;1272;99310;-75
2023/01/10 08:21:55;;;;;;;15.80;8.50;;;;;;;3.40;89.20;98370.27;89398;1270;23181;-75
2023/01/10 08:23:57;;;;;;;18.00;9.30;;;;;;;3.40;89.25;98380.52;89368;1268;22539;-75
2023/01/10 08:25:59;;;;;;;13.90;9.80;;;;;;;3.40;88.99;98383.98;89411;1267;99086;-76
2023/01/10 08:28:00;;;;;;;18.90;9.80;;;;;;;3.41;89.05;98393.52;89200;1271;22671;-75
2023/01/10 08:30:04;;;;;;;14.90;9.50;;;;;;;3.42;89.12;98391.91;89397;1269;25284;-76
2023/01/10 08:32:06;;;;;;;16.50;10.00;;;;;;;3.43;89.27;98393.45;89176;1268;99032;-76
2023/01/10 08:34:07;;;;;;;22.60;10.00;;;;;;;3.44;89.17;98399.50;89324;1269;23559;-75
2023/01/10 08:36:21;;;;;;;13.60;9.50;;;;;;;3.46;89.11;98401.55;89182;1263;22669;-76
2023/01/10 08:38:22;;;;;;;18.30;10.10;;;;;;;3.48;89.22;98407.04;88979;1268;98905;-75
2023/01/10 08:40:25;;;;;;;19.30;10.50;;;;;;;3.49;89.36;98406.14;89130;1267;25646;-77
2023/01/10 08:42:27;;;;;;;21.50;11.20;;;;;;;3.50;89.23;98411.52;89088;1271;22641;-75
2023/01/10 08:44:28;;;;;;;17.30;10.00;;;;;;;3.50;89.18;98407.48;89346;1270;99090;-77
2023/01/10 08:46:30;;;;;;;14.80;9.60;;;;;;;3.50;89.31;98409.93;89338;1262;24343;-74
2023/01/10 08:48:32;;;;;;;13.60;10.30;;;;;;;3.50;89.11;98410.13;89495;1262;22677;-75
2023/01/10 08:50:34;;;;;;;18.00;10.00;;;;;;;3.51;89.31;98415.63;89257;1268;99994;-73
2023/01/10 08:52:37;;;;;;;15.60;9.70;;;;;;;3.51;89.47;98418.75;89440;1269;22557;-73
2023/01/10 08:54:38;;;;;;;17.70;9.80;;;;;;;3.53;89.45;98419.92;89441;1267;24601;-73
2023/01/10 08:56:40;;;;;;;15.70;9.50;;;;;;;3.54;89.25;98424.39;89083;1272;99739;-74
2023/01/10 08:58:42;;;;;;;18.70;9.00;;;;;;;3.55;89.20;98434.10;89123;1273;25387;-74
2023/01/10 09:00:44;;;;;;;16.40;8.40;;;;;;;3.55;89.05;98434.98;89462;1256;24238;-73
2023/01/10 09:02:46;;;;;;;8.80;7.40;;;;;;;3.53;89.41;98437.27;89360;1269;97944;-75
2023/01/10 09:04:47;;;;;;;11.20;7.60;;;;;;;3.57;89.25;98446.38;89262;1269;25828;-74
2023/01/10 09:06:49;;;;;;;10.20;7.40;;;;;;;3.59;89.43;98450.15;89114;1269;24407;-74
2023/01/10 09:08:51;;;;;;;13.10;8.10;;;;;;;3.60;89.34;98454.83;88977;1262;98040;-74
2023/01/10 09:10:53;;;;;;;16.30;8.50;;;;;;;3.60;89.21;98460.20;88830;1270;24363;-76
2023/01/10 09:12:58;;;;;;;11.30;8.00;;;;;;;3.61;89.22;98460.18;88964;1264;22687;-75
2023/01/10 09:15:00;;;;;;;12.50;8.10;;;;;;;3.62;89.20;98460.66;88990;1266;97786;-75
2023/01/10 09:17:01;;;;;;;10.30;8.20;;;;;;;3.64;89.14;98459.39;89077;1266;22637;-74
2023/01/10 09:19:03;;;;;;;13.60;8.50;;;;;;;3.65;89.22;98459.36;89167;1269;22551;-74
2023/01/10 09:21:05;;;;;;;13.00;9.00;;;;;;;3.66;89.28;98459.50;88956;1269;99117;-74
2023/01/10 09:23:10;;;;;;;19.10;10.60;;;;;;;3.68;89.13;98460.48;89170;1270;27559;-75
2023/01/10 09:25:12;;;;;;;14.60;10.00;;;;;;;3.70;89.26;98461.66;89625;1265;22533;-76
2023/01/10 09:27:14;;;;;;;20.60;10.90;;;;;;;3.69;89.43;98461.69;89556;1270;99352;-77
2023/01/10 09:29:15;;;;;;;22.10;13.00;;;;;;;3.72;89.40;98466.48;89686;1254;22656;-76
2023/01/10 09:31:17;;;;;;;25.00;14.30;;;;;;;3.72;89.22;98469.57;89488;1262;24720;-79
2023/01/10 09:33:19;;;;;;;20.40;14.10;;;;;;;3.73;89.46;98470.77;89207;1269;99265;-77
2023/01/10 09:35:22;;;;;;;20.40;13.30;;;;;;;3.74;89.13;98474.55;89224;1262;22456;-76
2023/01/10 09:37:24;;;;;;;22.70;13.90;;;;;;;3.76;89.37;98475.20;89289;1270;22712;-78
2023/01/10 09:39:27;;;;;;;28.40;13.50;;;;;;;3.79;89.19;98478.44;89367;1273;98047;-77
2023/01/10 09:41:35;;;;;;;20.40;13.80;;;;;;;3.80;89.33;98483.25;89326;1269;22577;-76
2023/01/10 09:43:55;;;;;;;24.60;13.60;;;;;;;3.82;89.25;98480.27;89279;1266;99196;-78
2023/01/10 09:46:05;;;;;;;20.90;13.60;;;;;;;3.85;89.39;98481.89;89644;1265;22742;-77
2023/01/10 09:48:30;;;;;;;18.70;12.50;;;;;;;3.87;89.55;98481.84;89535;1266;24245;-77